createdAt,value
2022-11-18T00:00:01.632Z,14.4
2022-11-18T00:15:01.387Z,14.25
2022-11-18T00:30:02.087Z,14.39
2022-11-18T00:45:01.782Z,14.41
2022-11-18T01:00:01.488Z,14.54
2022-11-18T01:15:02.142Z,14.38
2022-11-18T01:30:01.843Z,14.53
2022-11-18T01:45:01.568Z,14.53
2022-11-18T02:00:01.286Z,14.52
2022-11-18T02:15:02.244Z,14.47
2022-11-18T02:30:02.011Z,14.57
2022-11-18T02:45:01.667Z,14.39
2022-11-18T03:00:02.294Z,14.51
2022-11-18T03:15:01.985Z,14.57
2022-11-18T03:30:01.664Z,14.61
2022-11-18T03:45:02.290Z,14.6
2022-11-18T04:00:01.900Z,14.53
2022-11-18T04:15:01.536Z,14.54
2022-11-18T04:30:02.213Z,14.52
2022-11-18T04:45:01.886Z,14.52
2022-11-18T05:00:01.613Z,14.61
2022-11-18T05:15:02.277Z,14.81
2022-11-18T05:30:01.991Z,14.77
2022-11-18T05:45:01.653Z,14.5
2022-11-18T06:00:02.271Z,14.07
2022-11-18T06:15:02.093Z,13.95
2022-11-18T06:30:01.777Z,14.38
2022-11-18T06:45:01.535Z,13.93
2022-11-18T07:00:02.817Z,13.61
2022-11-18T07:15:01.714Z,13.71
2022-11-18T07:30:01.438Z,13.85
2022-11-18T07:45:02.144Z,13.75
2022-11-18T08:00:01.860Z,14.15
2022-11-18T08:15:01.548Z,14.14
2022-11-18T08:30:02.222Z,13.97
2022-11-18T08:45:01.939Z,13.75
2022-11-18T09:00:01.635Z,13.63
2022-11-18T09:30:01.345Z,13.16
2022-11-18T09:45:02.004Z,13.13
2022-11-18T10:00:01.694Z,13.19
2022-11-18T10:15:01.598Z,12.95
2022-11-18T10:30:02.261Z,12.28
2022-11-18T10:45:01.866Z,12.04
2022-11-18T11:00:01.580Z,11.7
2022-11-18T11:15:02.292Z,11.61
2022-11-18T11:30:01.931Z,11.65
2022-11-18T11:45:01.586Z,11.46
2022-11-18T12:00:02.211Z,11.01
2022-11-18T12:15:01.872Z,11.01
2022-11-18T12:30:01.541Z,10.99
2022-11-18T12:45:02.203Z,10.65
2022-11-18T13:00:01.835Z,10.41
2022-11-18T13:15:01.518Z,10.38
2022-11-18T13:30:02.224Z,10.09
2022-11-18T13:45:01.890Z,9.9
2022-11-18T14:00:01.532Z,9.63
2022-11-18T14:15:02.188Z,9.41
2022-11-18T14:30:01.855Z,9.06
2022-11-18T14:45:01.509Z,8.91
2022-11-18T15:00:02.147Z,8.69
2022-11-18T15:15:01.816Z,8.55
2022-11-18T15:30:01.995Z,8.31
2022-11-18T15:45:01.845Z,7.96
2022-11-18T16:00:01.482Z,7.93
2022-11-18T16:15:02.150Z,7.6
2022-11-18T16:30:01.925Z,7.57
2022-11-18T16:45:01.679Z,7.52
2022-11-18T17:00:01.297Z,7.38
2022-11-18T17:15:01.934Z,7.34
2022-11-18T17:30:01.591Z,7.31
2022-11-18T17:45:01.290Z,7.15
2022-11-18T18:00:01.934Z,7.06
2022-11-18T18:15:01.784Z,6.88
2022-11-18T18:30:01.521Z,6.05
2022-11-18T18:45:02.124Z,6.22
2022-11-18T19:00:01.771Z,6.29
2022-11-18T19:15:01.872Z,6.38
2022-11-18T19:30:01.628Z,6.38
2022-11-18T19:45:02.274Z,6.41
2022-11-18T20:00:01.903Z,6.36
2022-11-18T20:15:01.564Z,6.22
2022-11-18T20:30:02.207Z,6.32
2022-11-18T20:45:01.835Z,6.46
2022-11-18T21:00:01.481Z,6.67
2022-11-18T21:15:02.110Z,6.64
2022-11-18T21:30:01.758Z,6.72
2022-11-18T21:45:01.413Z,6.8
2022-11-18T22:00:02.053Z,6.9
2022-11-18T22:15:01.955Z,6.81
2022-11-18T22:30:01.720Z,6.79
2022-11-18T22:45:02.333Z,6.79
2022-11-18T23:00:02.008Z,6.85
2022-11-18T23:15:01.708Z,6.71
2022-11-18T23:30:02.379Z,6.72
2022-11-18T23:45:05.265Z,6.69
